Montague, Canada
Current Conditions -  °F | °C
As of 7:00 PM on Thursday 27 Nov 2014 (Local Time) from CYYG Reporting Station
Snow Showers Snow Showers  
Wind Chill: 19°   Ceiling: 2000
Heat Index: 30°   Visibility: 8mi
Dew Point: 25°   Wind: 16mph
Humidity: 80%   Direction: 330°NNW
Pressure: 29.82"   Gusts: 25mph
Location:  46.17°N, 62.65°W
Report Text: CYYG 272300Z 33014G22KT 8SM -SHSN OVC020 M01/M04 A2982 RMK SC8 PRESRR SLP099
Loading
Personal Weather Stations






























Interactive Weather Map New forecast layout! Learn more

10-Day Weather Forecast

Advertisements
Track Severe Weather on mobile